Terminal Aerodrome Forecast
Issued by NWS

Current Version | Previous Version | Text Only | Print | Product List | Glossary On
Versions: 1 2 3 4 5 6 7 8 9 10 11 12 13 14 15 16 17 18 19 20 21 22 23 24 25 26 27 28
000
FTUS42 KGSP 042328
TAFAND
TAF
KAND 042328Z 0500/0524 22008KT P6SM SCT050
     FM050700 23003KT P6SM SCT020 OVC100
     FM051200 23008KT P6SM VCSH BKN070 PROB30 0512/0515 SHRA
     FM051700 22008G18KT P6SM SCT060 BKN120=

USA.gov is the U.S. government's official web portal to all federal, state and local government web resources and services.